ムルマンスク の空港の天気 - METARとTAF

ムルマンスク空港 ( ULMM / MMK ) - ロシア ムルマンスク
飛行場実況気象(Metar)
観測時間05/25 13:00 MSK (05/25 10:00 UTC)
風向・風速東 2m/s
視程8000m
天気現象弱いしゅう雨
全天の4割程度の雲 雲底高度 180m
全天の8割程度の雲 雲底高度 430m
気温3℃
湿度81%
気圧1006hPa
METARULMM 251000Z 10002MPS 8000 -SHRA SCT006 BKN014CB 03/00 Q1006 R31/290055 NOSIG RMK OBST OBSC QFE747
過去の天気等 Google飛行場航空写真 Wunderground天気予報

過去48時間のMETAR

飛行場予報(TAF)
発表時間: 5/25 10:59 MSK (5/25 07:59 UTC)
予報対象時間: 25日12時 MSK ~ 26日12時 MSK
風向・風速東 3m/s 瞬間風速 9m/s
視程10km以上
全天の8割程度の雲 雲底高度 400m
25日12時 MSK ~ 25日16時 MSK に一時的に
風向・風速南東 5m/s
視程1,000m
天気現象弱いしゅう雨雪 もや
全天の8割程度の雲 雲底高度 90m
全天の8割程度の積乱雲 雲底高度 400m
25日16時 MSK ~ 26日3時 MSK に一時的に
風向・風速南東 4m/s
視程3,100m
天気現象弱いしゅう雨雪 もや
全天の8割程度の雲 雲底高度 340m
全天の8割程度の積乱雲 雲底高度 400m
26日3時 MSK ~ 26日5時 MSK に徐々に
風向・風速北 3m/s 瞬間風速 9m/s
26日5時 MSK ~ 26日12時 MSK に一時的に
風向・風速北東 5m/s 瞬間風速 10m/s
視程3,100m
天気現象弱いしゅう雪雨
全天の8割程度の雲 雲底高度 340m
全天の8割程度の積乱雲 雲底高度 400m
TAF ULMM 250759Z 2509/2609 09003G09MPS 9999 BKN013
TEMPO 2509/2513 14005MPS 1000 -SHRASN BR BKN003 BKN013CB
TEMPO 2513/2524 14004MPS 3100 -SHRASN BR BKN011 BKN013CB
BECMG 2600/2602 35003G09MPS
TEMPO 2602/2609 04005G10MPS 3100 -SHSNRA BKN011 BKN013CB